Time;durP1;ratioP1;P1;durP2;ratioP2;P2;SDS_P1;SDS_P2;PMS_P1;PMS_P2;Temp;Humidity;BMP_temperature;BMP_pressure;BME280_temperature;BME280_humidity;BME280_pressure;Samples;Min_cycle;Max_cycle;Signal;HPM_P1;HPM_P2
2022/04/03 00:01:53;;;;;;;;;;;1.20;99.90;;;;;;5155191;27;20022;-67
2022/04/03 00:04:18;;;;;;;;;;;0.70;99.90;;;;;;5155119;27;19977;-67
2022/04/03 00:06:44;;;;;;;;;;;0.00;99.90;;;;;;5155118;27;19930;-70
2022/04/03 00:09:09;;;;;;;;;;;-0.10;99.90;;;;;;5159307;27;19927;-67
2022/04/03 00:11:35;;;;;;;;;;;-0.10;99.90;;;;;;5158923;27;20328;-68
2022/04/03 00:14:00;;;;;;;;;;;1.10;99.90;;;;;;5140040;27;19946;-67
2022/04/03 00:16:26;;;;;;;;;;;-0.90;99.90;;;;;;5159369;27;19984;-68
2022/04/03 00:18:52;;;;;;;;;;;0.20;99.90;;;;;;5159006;27;19923;-68
2022/04/03 00:21:18;;;;;;;;;;;0.60;99.90;;;;;;5140501;27;19923;-69
2022/04/03 00:23:44;;;;;;;;;;;1.70;99.90;;;;;;5140382;27;19954;-67
2022/04/03 00:26:09;;;;;;;;;;;-0.10;99.90;;;;;;5158826;27;19923;-68
2022/04/03 00:28:35;;;;;;;;;;;1.60;99.90;;;;;;5140699;27;19930;-67
2022/04/03 00:31:01;;;;;;;;;;;-0.10;99.90;;;;;;5158625;27;19923;-67
2022/04/03 00:33:26;;;;;;;;;;;0.10;99.90;;;;;;5158766;27;19923;-69
2022/04/03 00:35:52;;;;;;;;;;;2.30;99.90;;;;;;5140647;27;19965;-70
2022/04/03 00:38:17;;;;;;;;;;;0.60;99.90;;;;;;5158651;27;20398;-68
2022/04/03 00:40:44;;;;;;;;;;;-0.10;99.90;;;;;;5158424;27;19923;-69
2022/04/03 00:43:11;;;;;;;;;;;0.00;99.90;;;;;;5158494;27;19927;-67
2022/04/03 00:45:38;;;;;;;;;;;-0.50;99.90;;;;;;5158357;27;20335;-67
2022/04/03 00:48:03;;;;;;;;;;;-0.20;99.90;;;;;;5158359;27;20424;-67
2022/04/03 00:50:29;;;;;;;;;;;0.00;99.90;;;;;;5158562;27;19978;-68
2022/04/03 00:52:55;;;;;;;;;;;1.10;99.90;;;;;;5158308;27;20289;-67
2022/04/03 00:55:20;;;;;;;;;;;0.00;99.90;;;;;;5140144;27;20012;-68
2022/04/03 00:57:46;;;;;;;;;;;0.00;99.90;;;;;;5158169;27;19927;-66
2022/04/03 01:00:14;;;;;;;;;;;1.10;99.90;;;;;;5157999;27;19951;-70
2022/04/03 01:02:40;;;;;;;;;;;0.00;99.90;;;;;;5158204;27;20009;-67
2022/04/03 01:05:07;;;;;;;;;;;0.00;99.90;;;;;;5158272;27;19927;-67
2022/04/03 01:07:32;;;;;;;;;;;0.00;99.90;;;;;;5158078;27;19975;-69
2022/04/03 01:09:58;;;;;;;;;;;1.50;99.90;;;;;;5157950;27;20288;-69
2022/04/03 01:12:24;;;;;;;;;;;-0.40;99.90;;;;;;5157958;27;19923;-69
2022/04/03 01:14:49;;;;;;;;;;;-0.10;99.90;;;;;;5157704;27;20278;-67
2022/04/03 01:17:15;;;;;;;;;;;-0.70;99.90;;;;;;5158274;27;19923;-67
2022/04/03 01:19:41;;;;;;;;;;;1.60;99.90;;;;;;5138462;27;19923;-70
2022/04/03 01:22:06;;;;;;;;;;;0.80;99.90;;;;;;5157715;27;20289;-69
2022/04/03 01:24:32;;;;;;;;;;;0.90;99.90;;;;;;5139573;27;19923;-67
2022/04/03 01:26:58;;;;;;;;;;;1.10;99.90;;;;;;5157694;27;19977;-68
2022/04/03 01:29:24;;;;;;;;;;;0.10;99.90;;;;;;5139142;27;19970;-67
2022/04/03 01:31:50;;;;;;;;;;;-0.30;99.90;;;;;;5157447;27;19927;-67
2022/04/03 01:34:17;;;;;;;;;;;-0.30;99.90;;;;;;5157593;27;20453;-67
2022/04/03 01:36:43;;;;;;;;;;;-0.20;99.90;;;;;;5157609;27;20022;-67
2022/04/03 01:39:11;;;;;;;;;;;-0.30;99.90;;;;;;5157481;27;19923;-67
2022/04/03 01:41:37;;;;;;;;;;;1.80;99.90;;;;;;5157246;27;20018;-68
2022/04/03 01:44:04;;;;;;;;;;;-0.30;99.90;;;;;;5157382;27;19973;-69
2022/04/03 01:46:30;;;;;;;;;;;-0.30;99.90;;;;;;5138909;27;20018;-68
2022/04/03 01:48:55;;;;;;;;;;;0.70;99.90;;;;;;5139098;27;20038;-66
2022/04/03 01:51:21;;;;;;;;;;;-0.40;99.90;;;;;;5157475;27;19966;-70
2022/04/03 01:53:46;;;;;;;;;;;-0.30;99.90;;;;;;5157199;27;19929;-67
2022/04/03 01:56:12;;;;;;;;;;;-0.40;99.90;;;;;;5157141;27;20417;-70
2022/04/03 01:58:37;;;;;;;;;;;0.80;99.90;;;;;;5157090;27;19963;-68
2022/04/03 02:01:04;;;;;;;;;;;-0.30;99.90;;;;;;5156842;27;20362;-68
2022/04/03 02:03:30;;;;;;;;;;;1.40;99.90;;;;;;5156920;27;19923;-68
2022/04/03 02:05:57;;;;;;;;;;;-0.40;99.90;;;;;;5138563;27;19923;-67
2022/04/03 02:08:22;;;;;;;;;;;1.40;99.90;;;;;;5156892;27;19926;-68
2022/04/03 02:10:48;;;;;;;;;;;-0.50;99.90;;;;;;5156642;27;19930;-67
2022/04/03 02:13:13;;;;;;;;;;;-0.60;99.90;;;;;;5156757;27;19933;-67
2022/04/03 02:15:39;;;;;;;;;;;-0.40;99.90;;;;;;5156500;27;20339;-67
2022/04/03 02:18:05;;;;;;;;;;;-0.40;99.90;;;;;;5156519;27;19974;-68
2022/04/03 02:20:31;;;;;;;;;;;-0.30;99.90;;;;;;5156653;27;19923;-67
2022/04/03 02:22:58;;;;;;;;;;;1.40;99.90;;;;;;5138021;27;19948;-68
2022/04/03 02:25:24;;;;;;;;;;;0.60;99.90;;;;;;5138187;27;20331;-68
2022/04/03 02:27:50;;;;;;;;;;;0.90;99.90;;;;;;5156506;27;19927;-68
2022/04/03 02:30:15;;;;;;;;;;;0.50;99.90;;;;;;5137786;27;19927;-69
2022/04/03 02:32:41;;;;;;;;;;;0.90;99.90;;;;;;5156229;27;19923;-68
2022/04/03 02:35:08;;;;;;;;;;;-0.80;99.90;;;;;;5156517;27;20063;-68
2022/04/03 02:37:34;;;;;;;;;;;-0.60;99.90;;;;;;5156390;27;20015;-68
2022/04/03 02:40:00;;;;;;;;;;;-0.60;99.90;;;;;;5156198;27;19949;-67
2022/04/03 02:42:26;;;;;;;;;;;-0.60;99.90;;;;;;5156224;27;20366;-68
2022/04/03 02:44:52;;;;;;;;;;;-0.60;99.90;;;;;;5156132;27;19930;-67
2022/04/03 02:47:17;;;;;;;;;;;-0.50;99.90;;;;;;5137638;27;19970;-67
2022/04/03 02:49:43;;;;;;;;;;;-0.60;99.90;;;;;;5156121;27;19923;-68
2022/04/03 02:52:09;;;;;;;;;;;2.00;99.90;;;;;;5156081;27;20401;-67
2022/04/03 02:54:35;;;;;;;;;;;1.10;99.90;;;;;;5156038;27;20367;-67
2022/04/03 02:57:00;;;;;;;;;;;1.60;99.90;;;;;;5155878;27;19931;-67
2022/04/03 02:59:26;;;;;;;;;;;-0.20;99.90;;;;;;5155946;27;19923;-68
2022/04/03 03:01:52;;;;;;;;;;;-0.60;99.90;;;;;;5155659;27;20018;-69
2022/04/03 03:04:17;;;;;;;;;;;-0.60;99.90;;;;;;5155542;27;19929;-67
2022/04/03 03:06:43;;;;;;;;;;;1.60;99.90;;;;;;5155840;27;20019;-68
2022/04/03 03:09:09;;;;;;;;;;;-0.70;99.90;;;;;;5155873;27;20267;-67
2022/04/03 03:11:34;;;;;;;;;;;-0.80;99.90;;;;;;5155705;27;19923;-67
2022/04/03 03:14:00;;;;;;;;;;;-0.70;99.90;;;;;;5155588;27;19978;-70
2022/04/03 03:16:25;;;;;;;;;;;-1.00;99.90;;;;;;5155502;27;19930;-69
2022/04/03 03:18:51;;;;;;;;;;;-0.80;99.90;;;;;;5155404;27;20005;-67
2022/04/03 03:21:16;;;;;;;;;;;-0.80;99.90;;;;;;5155477;27;19923;-67
2022/04/03 03:23:42;;;;;;;;;;;-0.80;99.90;;;;;;5155608;27;19923;-70
2022/04/03 03:26:08;;;;;;;;;;;-0.70;99.90;;;;;;5120325;27;19976;-68
2022/04/03 03:28:34;;;;;;;;;;;0.00;99.90;;;;;;5137210;27;20374;-69
2022/04/03 03:30:59;;;;;;;;;;;1.20;99.90;;;;;;5155422;27;20026;-69
2022/04/03 03:33:25;;;;;;;;;;;0.40;99.90;;;;;;5136800;27;19923;-70
2022/04/03 03:35:50;;;;;;;;;;;-0.90;99.90;;;;;;5137327;27;19983;-68
2022/04/03 03:38:16;;;;;;;;;;;1.40;99.90;;;;;;5155470;27;19923;-69
2022/04/03 03:40:42;;;;;;;;;;;-0.80;99.90;;;;;;5155199;27;20142;-68
2022/04/03 03:43:09;;;;;;;;;;;-0.70;99.90;;;;;;5139668;27;20031;-67
2022/04/03 03:45:35;;;;;;;;;;;-0.50;99.90;;;;;;5141161;27;19923;-68
2022/04/03 03:48:01;;;;;;;;;;;-0.60;99.90;;;;;;5140610;27;19970;-68
2022/04/03 03:50:26;;;;;;;;;;;-0.50;99.90;;;;;;5159394;27;19974;-69
2022/04/03 03:52:52;;;;;;;;;;;0.70;99.90;;;;;;5159706;27;19985;-68
2022/04/03 03:55:18;;;;;;;;;;;1.30;99.90;;;;;;5159501;27;19981;-68
2022/04/03 03:57:46;;;;;;;;;;;-0.60;99.90;;;;;;5141252;27;19923;-69
2022/04/03 04:00:13;;;;;;;;;;;-0.30;99.90;;;;;;5159242;27;20377;-68
2022/04/03 04:02:38;;;;;;;;;;;-0.20;99.90;;;;;;5159209;27;19961;-69
2022/04/03 04:05:04;;;;;;;;;;;-0.30;99.90;;;;;;5159161;27;20312;-68
2022/04/03 04:07:37;;;;;;;;;;;-0.20;99.90;;;;;;5141223;27;19927;-70
2022/04/03 04:10:03;;;;;;;;;;;-0.20;99.90;;;;;;5140328;27;19923;-68
2022/04/03 04:12:29;;;;;;;;;;;0.30;99.90;;;;;;5159247;27;19923;-67
2022/04/03 04:14:54;;;;;;;;;;;2.00;99.90;;;;;;5159019;27;19992;-68
2022/04/03 04:17:20;;;;;;;;;;;-0.40;99.90;;;;;;5158949;27;19950;-68
2022/04/03 04:19:45;;;;;;;;;;;2.20;99.90;;;;;;5123333;27;19927;-67
2022/04/03 04:22:12;;;;;;;;;;;0.80;99.90;;;;;;5158974;27;19923;-67
2022/04/03 04:24:37;;;;;;;;;;;-0.20;99.90;;;;;;5140772;27;19927;-68
2022/04/03 04:27:03;;;;;;;;;;;2.00;99.90;;;;;;5140453;27;19923;-67
2022/04/03 04:29:29;;;;;;;;;;;-0.90;99.90;;;;;;5158979;27;19966;-67
2022/04/03 04:31:54;;;;;;;;;;;0.00;99.90;;;;;;5140578;27;19930;-67
2022/04/03 04:34:20;;;;;;;;;;;-0.10;99.90;;;;;;5140360;27;19927;-68
2022/04/03 04:36:46;;;;;;;;;;;0.00;99.90;;;;;;5158519;27;19930;-70
2022/04/03 04:39:11;;;;;;;;;;;0.70;99.90;;;;;;5106338;27;19971;-69
2022/04/03 04:41:37;;;;;;;;;;;1.20;99.90;;;;;;5158621;27;19923;-67
2022/04/03 04:44:02;;;;;;;;;;;0.10;99.90;;;;;;5123058;27;19930;-67
2022/04/03 04:46:28;;;;;;;;;;;0.10;99.90;;;;;;5158515;27;20347;-67
2022/04/03 04:48:54;;;;;;;;;;;0.10;99.90;;;;;;5158288;27;20386;-69
2022/04/03 04:51:19;;;;;;;;;;;1.50;99.90;;;;;;5139922;27;19952;-68
2022/04/03 04:53:45;;;;;;;;;;;0.10;99.90;;;;;;5158246;27;20021;-67
2022/04/03 04:56:12;;;;;;;;;;;2.30;99.90;;;;;;5158408;27;19923;-68
2022/04/03 04:58:37;;;;;;;;;;;0.20;99.90;;;;;;5158316;27;19923;-67
2022/04/03 05:01:03;;;;;;;;;;;0.70;99.90;;;;;;5122000;27;19923;-67
2022/04/03 05:03:29;;;;;;;;;;;0.20;99.90;;;;;;5139597;27;19997;-70
2022/04/03 05:05:55;;;;;;;;;;;1.10;99.90;;;;;;5122170;27;20382;-69
2022/04/03 05:08:20;;;;;;;;;;;0.20;99.90;;;;;;5139954;27;19925;-67
2022/04/03 05:10:46;;;;;;;;;;;1.30;99.90;;;;;;5139855;27;19923;-68
2022/04/03 05:13:12;;;;;;;;;;;0.30;99.90;;;;;;5139217;27;20406;-67
2022/04/03 05:15:37;;;;;;;;;;;0.30;99.90;;;;;;5157837;27;19923;-67
2022/04/03 05:18:03;;;;;;;;;;;0.30;99.90;;;;;;5157773;27;19923;-68
2022/04/03 05:20:29;;;;;;;;;;;0.30;99.90;;;;;;5157615;27;20014;-67
2022/04/03 05:22:55;;;;;;;;;;;0.30;99.90;;;;;;5158169;27;19930;-67
2022/04/03 05:25:21;;;;;;;;;;;0.40;99.90;;;;;;5157784;27;19927;-67
2022/04/03 05:27:46;;;;;;;;;;;2.30;99.90;;;;;;5139339;27;19974;-67
2022/04/03 05:30:13;;;;;;;;;;;0.30;99.90;;;;;;5157721;27;20373;-67
2022/04/03 05:32:38;;;;;;;;;;;0.50;99.90;;;;;;5139177;27;19930;-69
2022/04/03 05:35:05;;;;;;;;;;;2.50;99.90;;;;;;5157449;27;19923;-68
2022/04/03 05:37:32;;;;;;;;;;;0.50;99.90;;;;;;5139195;27;19974;-67
2022/04/03 05:39:57;;;;;;;;;;;0.60;99.90;;;;;;5157513;27;20440;-68
2022/04/03 05:42:23;;;;;;;;;;;1.60;99.90;;;;;;5157425;27;20014;-67
2022/04/03 05:44:48;;;;;;;;;;;0.60;99.90;;;;;;5157472;27;20278;-69
2022/04/03 05:47:16;;;;;;;;;;;-0.20;99.90;;;;;;5157372;27;20327;-68
2022/04/03 05:49:41;;;;;;;;;;;0.60;99.90;;;;;;5157251;27;19930;-67
2022/04/03 05:52:07;;;;;;;;;;;0.60;99.90;;;;;;5138517;27;19923;-70
2022/04/03 05:54:33;;;;;;;;;;;0.60;99.90;;;;;;5157400;27;20014;-69
2022/04/03 05:56:59;;;;;;;;;;;0.60;99.90;;;;;;5139044;27;19930;-68
2022/04/03 05:59:24;;;;;;;;;;;0.60;99.90;;;;;;5157104;27;19923;-69
2022/04/03 06:01:50;;;;;;;;;;;2.50;99.90;;;;;;5121357;27;19927;-70
2022/04/03 06:04:16;;;;;;;;;;;1.60;99.90;;;;;;5137875;27;19963;-68
2022/04/03 06:06:41;;;;;;;;;;;1.20;99.90;;;;;;5156246;27;19988;-68
2022/04/03 06:09:08;;;;;;;;;;;2.40;99.90;;;;;;5156773;27;20433;-68
2022/04/03 06:11:33;;;;;;;;;;;1.80;99.90;;;;;;5138483;27;20009;-69
2022/04/03 06:14:00;;;;;;;;;;;0.80;99.90;;;;;;5156823;27;19974;-67
2022/04/03 06:16:25;;;;;;;;;;;0.80;99.90;;;;;;5156654;27;19927;-69
2022/04/03 06:18:53;;;;;;;;;;;2.80;99.90;;;;;;5156623;27;19967;-67
2022/04/03 06:21:19;;;;;;;;;;;1.80;99.90;;;;;;5156534;27;20282;-67
2022/04/03 06:23:44;;;;;;;;;;;0.90;99.90;;;;;;5138013;27;19930;-68
2022/04/03 06:26:10;;;;;;;;;;;0.90;99.90;;;;;;5156713;27;19937;-68
2022/04/03 06:28:35;;;;;;;;;;;0.70;99.90;;;;;;5138360;27;20324;-68
2022/04/03 06:31:01;;;;;;;;;;;1.50;99.90;;;;;;5138254;27;19930;-70
2022/04/03 06:33:27;;;;;;;;;;;0.90;99.90;;;;;;5138116;27;19923;-70
2022/04/03 06:35:53;;;;;;;;;;;1.70;99.90;;;;;;5138132;27;19923;-68
2022/04/03 06:38:18;;;;;;;;;;;3.20;99.90;;;;;;5156199;27;20017;-69
2022/04/03 06:40:48;;;;;;;;;;;1.90;99.90;;;;;;5137740;27;19923;-67
2022/04/03 06:43:15;;;;;;;;;;;2.60;99.90;;;;;;5156332;27;20379;-70
2022/04/03 06:45:41;;;;;;;;;;;0.90;99.90;;;;;;5156207;27;19930;-70
2022/04/03 06:48:07;;;;;;;;;;;2.70;99.90;;;;;;5156112;27;20298;-69
2022/04/03 06:50:32;;;;;;;;;;;1.00;99.90;;;;;;5155949;27;19923;-66
2022/04/03 06:52:58;;;;;;;;;;;3.40;99.90;;;;;;5155854;27;20008;-68
2022/04/03 06:55:23;;;;;;;;;;;2.30;99.90;;;;;;5137229;27;19928;-69
2022/04/03 06:57:49;;;;;;;;;;;-0.70;99.90;;;;;;5156027;27;20022;-68
2022/04/03 07:00:15;;;;;;;;;;;0.90;99.90;;;;;;5155913;27;19985;-70
2022/04/03 07:02:53;;;;;;;;;;;1.40;99.90;;;;;;5136244;27;19934;-69
2022/04/03 07:05:19;;;;;;;;;;;1.00;99.90;;;;;;5155411;27;19923;-68
2022/04/03 07:07:45;;;;;;;;;;;1.00;99.90;;;;;;5155548;27;19923;-69
2022/04/03 07:10:10;;;;;;;;;;;3.30;99.90;;;;;;5155180;27;19975;-70
2022/04/03 07:12:37;;;;;;;;;;;1.10;99.90;;;;;;5155432;27;19923;-67
2022/04/03 07:15:03;;;;;;;;;;;1.20;99.90;;;;;;5155651;27;20275;-68
2022/04/03 07:17:29;;;;;;;;;;;1.30;99.90;;;;;;5155572;27;19930;-70
2022/04/03 07:19:54;;;;;;;;;;;1.40;99.90;;;;;;5136921;27;19923;-68
2022/04/03 07:22:20;;;;;;;;;;;1.50;99.90;;;;;;5155804;27;19927;-68
2022/04/03 07:24:45;;;;;;;;;;;1.30;99.90;;;;;;5155273;27;20326;-68
2022/04/03 07:27:11;;;;;;;;;;;1.50;99.90;;;;;;5137135;27;20025;-71
2022/04/03 07:29:36;;;;;;;;;;;1.70;99.90;;;;;;5155579;27;20021;-68
2022/04/03 07:32:03;;;;;;;;;;;3.20;99.90;;;;;;5155378;27;19923;-70
2022/04/03 07:34:28;;;;;;;;;;;1.80;99.90;;;;;;5155390;27;19937;-68
2022/04/03 07:36:54;;;;;;;;;;;1.90;99.90;;;;;;5136074;27;20009;-68
2022/04/03 07:39:20;;;;;;;;;;;2.90;99.90;;;;;;5136066;27;20331;-68
2022/04/03 07:41:46;;;;;;;;;;;2.10;99.90;;;;;;5155204;27;19923;-69
2022/04/03 07:44:12;;;;;;;;;;;4.20;99.90;;;;;;5136976;27;20301;-69
2022/04/03 07:46:37;;;;;;;;;;;2.60;99.90;;;;;;5155178;27;19932;-68
2022/04/03 07:49:04;;;;;;;;;;;4.40;99.90;;;;;;5155014;27;20286;-68
2022/04/03 07:51:30;;;;;;;;;;;3.10;99.90;;;;;;5154955;27;19927;-69
2022/04/03 07:53:56;;;;;;;;;;;4.50;99.90;;;;;;5154895;27;19934;-67
2022/04/03 07:56:22;;;;;;;;;;;2.40;99.90;;;;;;5155183;27;19927;-67
2022/04/03 07:58:47;;;;;;;;;;;2.80;99.90;;;;;;5155123;27;19923;-70
2022/04/03 08:01:13;;;;;;;;;;;2.90;99.90;;;;;;5154776;27;19991;-68
2022/04/03 08:03:38;;;;;;;;;;;4.00;99.90;;;;;;5154969;27;19931;-68
2022/04/03 08:06:04;;;;;;;;;;;3.30;99.90;;;;;;5136061;27;19923;-67
2022/04/03 08:08:30;;;;;;;;;;;3.10;99.90;;;;;;5154871;27;20022;-68
2022/04/03 08:10:56;;;;;;;;;;;3.40;99.90;;;;;;5119507;27;20378;-68
2022/04/03 08:13:22;;;;;;;;;;;3.80;99.90;;;;;;5135913;27;20010;-68
2022/04/03 08:15:48;;;;;;;;;;;3.30;99.90;;;;;;5154791;27;20014;-69
2022/04/03 08:18:13;;;;;;;;;;;2.50;99.90;;;;;;5154886;27;19968;-69
2022/04/03 08:20:39;;;;;;;;;;;3.50;99.90;;;;;;5154720;27;19923;-68
2022/04/03 08:23:05;;;;;;;;;;;5.00;99.90;;;;;;5154676;27;19929;-67
2022/04/03 08:25:31;;;;;;;;;;;4.80;99.90;;;;;;5154617;27;20017;-68
2022/04/03 08:27:57;;;;;;;;;;;3.90;99.90;;;;;;5154997;27;19923;-69
2022/04/03 08:30:22;;;;;;;;;;;4.00;99.90;;;;;;5158680;27;20038;-68
2022/04/03 08:32:48;;;;;;;;;;;5.00;99.90;;;;;;5158664;27;19930;-67
2022/04/03 08:35:17;;;;;;;;;;;5.40;99.90;;;;;;5158420;27;19967;-68
2022/04/03 08:37:44;;;;;;;;;;;4.30;99.90;;;;;;5158491;27;19927;-67
2022/04/03 08:40:10;;;;;;;;;;;4.40;99.90;;;;;;5158189;27;19945;-68
2022/04/03 08:42:35;;;;;;;;;;;4.40;99.90;;;;;;5139523;27;19930;-69
2022/04/03 08:45:02;;;;;;;;;;;4.50;99.90;;;;;;5140257;27;20014;-67
2022/04/03 08:47:28;;;;;;;;;;;4.50;99.90;;;;;;5140233;27;20014;-68
2022/04/03 08:49:59;;;;;;;;;;;5.40;99.90;;;;;;5158509;27;19923;-68
2022/04/03 08:52:25;;;;;;;;;;;5.40;99.90;;;;;;5158408;27;19923;-69
2022/04/03 08:54:51;;;;;;;;;;;4.60;99.90;;;;;;5158031;27;19934;-68
2022/04/03 08:57:16;;;;;;;;;;;5.10;99.90;;;;;;5158277;27;19923;-68
2022/04/03 08:59:43;;;;;;;;;;;4.70;99.90;;;;;;5139910;27;19946;-68
2022/04/03 09:02:12;;;;;;;;;;;6.60;99.90;;;;;;5139346;27;19923;-68
2022/04/03 09:04:37;;;;;;;;;;;5.00;99.90;;;;;;5139316;27;19923;-69
2022/04/03 09:07:03;;;;;;;;;;;5.90;99.90;;;;;;5157779;27;19923;-68
2022/04/03 09:09:28;;;;;;;;;;;5.40;99.90;;;;;;5157760;27;19923;-69
2022/04/03 09:12:07;;;;;;;;;;;5.40;99.90;;;;;;5157837;27;19923;-68
2022/04/03 09:14:43;;;;;;;;;;;5.50;99.90;;;;;;5157721;27;20369;-69
2022/04/03 09:17:08;;;;;;;;;;;5.60;99.90;;;;;;5157989;27;19931;-68
2022/04/03 09:19:34;;;;;;;;;;;7.50;99.90;;;;;;5157558;27;19923;-68
2022/04/03 09:22:01;;;;;;;;;;;5.60;99.90;;;;;;5157286;27;20396;-70
2022/04/03 09:24:27;;;;;;;;;;;5.60;99.90;;;;;;5139164;27;19923;-68
2022/04/03 09:27:00;;;;;;;;;;;6.30;99.90;;;;;;5157633;27;20346;-68
2022/04/03 09:29:25;;;;;;;;;;;5.80;99.90;;;;;;5157570;27;19930;-68
2022/04/03 09:31:57;;;;;;;;;;;5.90;99.90;;;;;;5157347;27;19923;-68
2022/04/03 09:34:24;;;;;;;;;;;5.90;99.90;;;;;;5157237;27;19923;-69
2022/04/03 09:36:54;;;;;;;;;;;7.40;99.90;;;;;;5138543;27;20350;-68
2022/04/03 09:39:24;;;;;;;;;;;6.20;99.90;;;;;;5138730;27;19989;-68
2022/04/03 09:41:55;;;;;;;;;;;6.30;99.90;;;;;;5156707;27;19984;-68
2022/04/03 09:44:29;;;;;;;;;;;6.50;99.90;;;;;;5157228;27;19933;-68
2022/04/03 09:47:13;;;;;;;;;;;6.60;99.90;;;;;;5157053;27;19967;-68
2022/04/03 09:49:38;;;;;;;;;;;6.80;99.90;;;;;;5156985;27;20401;-70
2022/04/03 09:52:04;;;;;;;;;;;6.90;99.90;;;;;;5156970;27;19923;-68
2022/04/03 09:54:30;;;;;;;;;;;7.00;99.90;;;;;;5138863;27;19927;-67
2022/04/03 09:56:56;;;;;;;;;;;7.80;99.90;;;;;;5138662;27;19927;-69
2022/04/03 09:59:21;;;;;;;;;;;7.30;99.90;;;;;;5138729;27;20021;-68
2022/04/03 10:01:55;;;;;;;;;;;7.50;99.90;;;;;;5138184;27;19922;-70
2022/04/03 10:04:22;;;;;;;;;;;7.20;99.90;;;;;;5156526;27;20344;-68
2022/04/03 10:06:51;;;;;;;;;;;7.00;99.90;;;;;;5155783;27;21462;-68
2022/04/03 10:09:18;;;;;;;;;;;6.80;99.90;;;;;;5156535;27;19930;-68
2022/04/03 10:11:46;;;;;;;;;;;7.10;99.90;;;;;;5156388;27;19985;-69
2022/04/03 10:14:11;;;;;;;;;;;6.50;99.90;;;;;;5156287;27;20289;-69
2022/04/03 10:16:37;;;;;;;;;;;5.10;99.90;;;;;;5138187;27;19930;-70
2022/04/03 10:19:02;;;;;;;;;;;6.70;99.90;;;;;;5156233;27;20430;-67
2022/04/03 10:21:40;;;;;;;;;;;8.60;99.90;;;;;;5156394;27;19930;-68
2022/04/03 10:24:16;;;;;;;;;;;7.20;99.90;;;;;;5156421;27;19933;-68
2022/04/03 10:26:43;;;;;;;;;;;7.20;99.90;;;;;;5156237;27;19974;-68
2022/04/03 10:29:10;;;;;;;;;;;7.10;99.90;;;;;;5156175;27;20356;-67
2022/04/03 10:31:40;;;;;;;;;;;8.90;99.90;;;;;;5155983;27;19927;-68
2022/04/03 10:34:05;;;;;;;;;;;7.70;99.90;;;;;;5156589;27;20056;-70
2022/04/03 10:36:32;;;;;;;;;;;7.80;99.90;;;;;;5137786;27;20013;-70
2022/04/03 10:38:58;;;;;;;;;;;7.90;99.90;;;;;;5156070;27;19923;-68
2022/04/03 10:41:31;;;;;;;;;;;8.00;99.90;;;;;;5137399;27;19930;-69
2022/04/03 10:44:09;;;;;;;;;;;8.00;99.90;;;;;;5155931;27;19923;-68
2022/04/03 10:46:55;;;;;;;;;;;8.00;98.10;;;;;;5155812;27;20386;-68
2022/04/03 10:49:28;;;;;;;;;;;9.10;99.90;;;;;;5155593;27;19927;-68
2022/04/03 10:51:57;;;;;;;;;;;8.40;95.80;;;;;;5137095;27;19923;-70
2022/04/03 10:54:29;;;;;;;;;;;8.40;92.20;;;;;;5155755;27;19930;-68
2022/04/03 10:57:15;;;;;;;;;;;8.10;99.90;;;;;;5155964;27;19923;-69
2022/04/03 10:59:40;;;;;;;;;;;7.90;99.90;;;;;;5155779;27;20030;-69
2022/04/03 11:02:15;;;;;;;;;;;7.70;99.90;;;;;;5155533;27;20025;-68
2022/04/03 11:04:40;;;;;;;;;;;7.50;99.90;;;;;;5137074;27;19976;-68
2022/04/03 11:07:12;;;;;;;;;;;7.30;99.90;;;;;;5155474;27;19927;-68
2022/04/03 11:09:46;;;;;;;;;;;7.20;99.90;;;;;;5155323;27;20396;-69
2022/04/03 11:12:11;;;;;;;;;;;7.00;99.90;;;;;;5154441;27;20408;-68
2022/04/03 11:14:56;;;;;;;;;;;7.00;99.90;;;;;;5155104;27;19923;-68
2022/04/03 11:17:41;;;;;;;;;;;7.10;99.90;;;;;;5155426;27;19923;-70
2022/04/03 11:20:07;;;;;;;;;;;7.30;99.90;;;;;;5155407;27;19927;-68
2022/04/03 11:22:32;;;;;;;;;;;7.40;99.90;;;;;;5136753;27;19923;-68
2022/04/03 11:24:59;;;;;;;;;;;7.50;99.90;;;;;;5155363;27;19931;-69
2022/04/03 11:27:24;;;;;;;;;;;7.80;99.90;;;;;;5136739;27;20294;-69
2022/04/03 11:29:51;;;;;;;;;;;7.90;99.90;;;;;;5155282;27;19926;-69
2022/04/03 11:32:18;;;;;;;;;;;8.10;99.90;;;;;;5136754;27;20442;-69
2022/04/03 11:34:43;;;;;;;;;;;8.10;97.50;;;;;;5155226;27;19923;-69
2022/04/03 11:37:13;;;;;;;;;;;7.90;94.70;;;;;;5155215;27;19923;-68
2022/04/03 11:39:39;;;;;;;;;;;7.90;99.90;;;;;;5155140;27;20010;-69
2022/04/03 11:42:08;;;;;;;;;;;7.70;92.70;;;;;;5155020;27;19945;-68
2022/04/03 11:44:35;;;;;;;;;;;7.80;99.90;;;;;;5155014;27;19992;-68
2022/04/03 11:47:02;;;;;;;;;;;7.90;94.30;;;;;;5155050;27;19927;-68
2022/04/03 11:49:29;;;;;;;;;;;7.90;97.40;;;;;;5155200;27;19923;-68
2022/04/03 11:51:58;;;;;;;;;;;8.30;99.90;;;;;;5154813;27;20417;-70
2022/04/03 11:54:25;;;;;;;;;;;8.30;99.40;;;;;;5155061;27;19923;-68
2022/04/03 11:56:57;;;;;;;;;;;8.50;99.90;;;;;;5154987;27;19935;-70
2022/04/03 11:59:23;;;;;;;;;;;8.50;92.40;;;;;;5154942;27;19923;-71
2022/04/03 12:01:51;;;;;;;;;;;8.70;89.20;;;;;;5154684;27;19964;-68
2022/04/03 12:04:17;;;;;;;;;;;8.50;92.80;;;;;;5157563;27;19970;-67
2022/04/03 12:06:47;;;;;;;;;;;8.40;95.60;;;;;;5159193;27;19924;-68
2022/04/03 12:09:14;;;;;;;;;;;8.20;99.90;;;;;;5140601;27;19968;-68
2022/04/03 12:11:40;;;;;;;;;;;9.60;99.90;;;;;;5158839;27;19985;-68
2022/04/03 12:14:07;;;;;;;;;;;8.80;99.90;;;;;;5159289;27;19970;-68
2022/04/03 12:16:33;;;;;;;;;;;7.90;99.90;;;;;;5158656;27;19930;-68
2022/04/03 12:19:17;;;;;;;;;;;7.80;99.90;;;;;;5158925;27;20014;-68
2022/04/03 12:21:44;;;;;;;;;;;7.70;99.90;;;;;;5158815;27;19930;-68
2022/04/03 12:24:14;;;;;;;;;;;7.90;99.90;;;;;;5158721;27;19978;-69
2022/04/03 12:26:44;;;;;;;;;;;8.10;99.90;;;;;;5158688;27;19974;-68
2022/04/03 12:29:10;;;;;;;;;;;8.40;99.40;;;;;;5158539;27;19930;-68
2022/04/03 12:31:35;;;;;;;;;;;8.70;98.50;;;;;;5140435;27;19923;-68
2022/04/03 12:34:11;;;;;;;;;;;8.80;82.70;;;;;;5158478;27;19923;-68
2022/04/03 12:36:57;;;;;;;;;;;8.90;81.60;;;;;;5158465;27;19973;-68
2022/04/03 12:39:39;;;;;;;;;;;8.90;84.00;;;;;;5157445;27;19923;-70
2022/04/03 12:42:23;;;;;;;;;;;8.90;77.40;;;;;;5158460;27;19923;-69
2022/04/03 12:44:49;;;;;;;;;;;9.00;85.70;;;;;;5158251;27;20420;-67
2022/04/03 12:47:22;;;;;;;;;;;9.80;81.60;;;;;;5158444;27;19924;-70
2022/04/03 12:50:07;;;;;;;;;;;9.10;78.60;;;;;;5158170;27;19956;-69
2022/04/03 12:52:48;;;;;;;;;;;9.10;82.10;;;;;;5158249;27;19930;-69
2022/04/03 13:00:41;;;;;;;;;;;9.20;85.90;;;;;;5139487;27;19946;-70
2022/04/03 13:03:07;;;;;;;;;;;9.00;73.20;;;;;;5158154;27;19923;-71
2022/04/03 13:05:33;;;;;;;;;;;9.00;70.90;;;;;;5139602;27;19923;-71
2022/04/03 13:08:07;;;;;;;;;;;9.40;68.60;;;;;;5157925;27;20005;-71
2022/04/03 13:10:33;;;;;;;;;;;9.20;70.30;;;;;;5157830;27;19923;-70
2022/04/03 13:12:58;;;;;;;;;;;9.10;70.10;;;;;;5135748;27;19930;-70
2022/04/03 13:15:24;;;;;;;;;;;9.20;72.20;;;;;;5136758;27;20423;-69
2022/04/03 13:17:50;;;;;;;;;;;8.80;66.80;;;;;;5135919;27;19923;-71
2022/04/03 13:20:16;;;;;;;;;;;9.40;67.30;;;;;;5136920;27;19931;-69
2022/04/03 13:22:41;;;;;;;;;;;9.40;67.30;;;;;;5118363;27;19966;-69
2022/04/03 13:25:07;;;;;;;;;;;9.40;69.50;;;;;;5136871;27;20393;-69
2022/04/03 13:27:33;;;;;;;;;;;9.00;78.20;;;;;;5136614;27;20282;-69
2022/04/03 13:29:59;;;;;;;;;;;8.70;90.50;;;;;;5118150;27;19931;-71
2022/04/03 13:32:25;;;;;;;;;;;8.80;96.30;;;;;;5136966;27;19928;-69
2022/04/03 13:34:50;;;;;;;;;;;8.30;90.90;;;;;;5135522;27;19927;-69
2022/04/03 13:37:16;;;;;;;;;;;8.10;94.10;;;;;;5136804;27;20294;-69
2022/04/03 13:39:41;;;;;;;;;;;8.20;88.60;;;;;;5136473;27;19982;-68
2022/04/03 13:42:08;;;;;;;;;;;8.40;98.40;;;;;;5135174;27;19930;-69
2022/04/03 13:44:34;;;;;;;;;;;8.30;94.80;;;;;;5135428;27;19971;-69
2022/04/03 13:47:00;;;;;;;;;;;8.40;99.90;;;;;;5135760;27;20014;-71
2022/04/03 13:49:25;;;;;;;;;;;8.50;99.90;;;;;;5135160;27;19927;-69
2022/04/03 13:51:51;;;;;;;;;;;8.60;99.90;;;;;;5136314;27;20010;-70
2022/04/03 13:54:17;;;;;;;;;;;8.70;99.90;;;;;;5136298;27;19924;-69
2022/04/03 13:56:42;;;;;;;;;;;8.90;99.90;;;;;;5136261;27;19951;-70
2022/04/03 13:59:08;;;;;;;;;;;9.30;99.90;;;;;;5136171;27;19968;-69
2022/04/03 14:01:34;;;;;;;;;;;8.60;99.90;;;;;;5135870;27;19967;-70
2022/04/03 14:04:00;;;;;;;;;;;8.40;99.90;;;;;;5136183;27;19923;-69
2022/04/03 14:06:26;;;;;;;;;;;8.20;99.90;;;;;;5136299;27;19992;-69
2022/04/03 14:08:52;;;;;;;;;;;8.00;99.90;;;;;;5135884;27;20371;-69
2022/04/03 14:11:20;;;;;;;;;;;7.90;99.90;;;;;;5135920;27;19977;-68
2022/04/03 14:13:46;;;;;;;;;;;7.80;99.90;;;;;;5117344;27;20010;-69
2022/04/03 14:16:12;;;;;;;;;;;8.00;99.90;;;;;;5135643;27;20006;-69
2022/04/03 14:18:37;;;;;;;;;;;7.70;99.90;;;;;;5136009;27;19930;-71
2022/04/03 14:21:05;;;;;;;;;;;7.70;99.90;;;;;;5135536;27;19924;-69
2022/04/03 14:23:36;;;;;;;;;;;8.60;99.90;;;;;;5135736;27;19935;-71
2022/04/03 14:26:03;;;;;;;;;;;8.00;99.90;;;;;;5135028;27;20382;-69
2022/04/03 14:28:32;;;;;;;;;;;7.90;99.90;;;;;;5135576;27;20018;-69
2022/04/03 14:30:58;;;;;;;;;;;7.90;99.90;;;;;;5134225;27;19930;-69
2022/04/03 14:33:23;;;;;;;;;;;7.30;99.90;;;;;;5135644;27;19923;-69